createdAt,value
2017-07-10T00:00:11.819Z,64.6
2017-07-10T00:00:52.388Z,64.89
2017-07-10T00:01:32.979Z,64.98
2017-07-10T00:02:13.553Z,65.17
2017-07-10T00:02:54.128Z,65.17
2017-07-10T00:03:34.715Z,64.98
2017-07-10T00:04:15.278Z,64.98
2017-07-10T00:04:55.851Z,65.08
2017-07-10T00:05:36.443Z,65.17
2017-07-10T00:06:17.023Z,64.98
2017-07-10T00:06:57.585Z,64.98
2017-07-10T00:07:38.169Z,65.08
2017-07-10T00:08:18.730Z,65.17
2017-07-10T00:08:59.293Z,64.98
2017-07-10T00:09:39.877Z,65.23
2017-07-10T00:10:20.449Z,65.08
2017-07-10T00:11:01.034Z,65.08
2017-07-10T00:11:41.631Z,64.89
2017-07-10T00:12:22.239Z,65.14
2017-07-10T00:13:02.819Z,64.98
2017-07-10T00:13:43.393Z,65.05
2017-07-10T00:14:23.990Z,64.95
2017-07-10T00:15:04.561Z,64.95
2017-07-10T00:15:45.143Z,65.72
2017-07-10T00:16:25.723Z,64.76
2017-07-10T00:17:06.293Z,64.66
2017-07-10T00:17:46.863Z,64.85
2017-07-10T00:18:27.427Z,65.72
2017-07-10T00:19:08.017Z,65.23
2017-07-10T00:19:48.578Z,65.53
2017-07-10T00:20:29.177Z,65.53
2017-07-10T00:21:09.760Z,65.72
2017-07-10T00:21:50.354Z,65.23
2017-07-10T00:22:30.992Z,65.33
2017-07-10T00:23:11.592Z,65.33
2017-07-10T00:23:52.182Z,65.81
2017-07-10T00:24:32.758Z,65.43
2017-07-10T00:25:13.325Z,65.43
2017-07-10T00:25:53.901Z,65.43
2017-07-10T00:26:34.545Z,65.62
2017-07-10T00:27:15.110Z,65.33
2017-07-10T00:27:55.700Z,65.62
2017-07-10T00:28:36.251Z,65.53
2017-07-10T00:29:16.857Z,65.72
2017-07-10T00:29:57.411Z,65.14
2017-07-10T00:30:38.095Z,65.72
2017-07-10T00:31:18.686Z,65.62
2017-07-10T00:31:59.270Z,65.33
2017-07-10T00:32:39.837Z,65.53
2017-07-10T00:33:27.282Z,65.81
2017-07-10T00:34:07.840Z,65.43
2017-07-10T00:34:48.431Z,65.53
2017-07-10T00:35:28.999Z,65.72
2017-07-10T00:36:09.587Z,66.2
2017-07-10T00:36:50.175Z,66
2017-07-10T00:37:30.778Z,66.2
2017-07-10T00:38:11.364Z,66.1
2017-07-10T00:38:51.948Z,66
2017-07-10T00:39:32.540Z,66.2
2017-07-10T00:40:13.107Z,66.2
2017-07-10T00:40:53.690Z,66
2017-07-10T00:41:34.330Z,66.2
2017-07-10T00:42:14.919Z,66.2
2017-07-10T00:42:55.485Z,66.2
2017-07-10T00:43:36.087Z,66.2
2017-07-10T00:44:16.670Z,66
2017-07-10T00:44:57.259Z,66.49
2017-07-10T00:45:37.827Z,66.3
2017-07-10T00:46:18.418Z,66.68
2017-07-10T00:46:58.986Z,66.58
2017-07-10T00:47:39.607Z,66.58
2017-07-10T00:48:20.264Z,66.58
2017-07-10T00:49:00.838Z,66.2
2017-07-10T00:49:41.412Z,66.3
2017-07-10T00:50:21.985Z,66.58
2017-07-10T00:51:02.570Z,66.49
2017-07-10T00:51:43.211Z,66.49
2017-07-10T00:52:23.800Z,66.2
2017-07-10T00:53:04.387Z,66.58
2017-07-10T00:53:44.974Z,66.58
2017-07-10T00:54:25.572Z,66.49
2017-07-10T00:55:06.152Z,66.58
2017-07-10T00:55:46.735Z,66.3
2017-07-10T00:56:27.311Z,66.77
2017-07-10T00:57:07.890Z,66.87
2017-07-10T00:57:48.449Z,66.49
2017-07-10T00:58:29.041Z,66.39
2017-07-10T00:59:09.669Z,66.77
2017-07-10T00:59:50.233Z,66.87
2017-07-10T01:00:30.801Z,66.97
2017-07-10T01:01:11.397Z,66.77
2017-07-10T01:01:51.984Z,66.2
2017-07-10T01:02:32.541Z,66.77
2017-07-10T01:03:13.105Z,66.49
2017-07-10T01:03:53.714Z,66.3
2017-07-10T01:04:34.280Z,66.77
2017-07-10T01:05:14.895Z,66.77
2017-07-10T01:05:55.456Z,67.07
2017-07-10T01:06:36.046Z,66.55
2017-07-10T01:07:16.620Z,66.77
2017-07-10T01:07:57.190Z,66.84
2017-07-10T01:08:37.756Z,67.13
2017-07-10T01:09:18.336Z,67.45
2017-07-10T01:09:58.956Z,66.64
2017-07-10T01:10:39.494Z,67.25
2017-07-10T01:11:20.119Z,66.84
2017-07-10T01:12:00.717Z,66.84
2017-07-10T01:12:41.314Z,67.25
2017-07-10T01:13:21.893Z,66.74
2017-07-10T01:14:02.466Z,66.74
2017-07-10T01:14:43.091Z,66.87
2017-07-10T01:15:23.684Z,66.77
2017-07-10T01:16:04.264Z,67.22
2017-07-10T01:16:44.849Z,66.77
2017-07-10T01:17:25.460Z,66.74
2017-07-10T01:18:06.058Z,66.84
2017-07-10T01:18:46.692Z,67.13
2017-07-10T01:19:27.297Z,67.41
2017-07-10T01:20:07.951Z,67.03
2017-07-10T01:20:48.611Z,67.22
2017-07-10T01:21:29.257Z,67.25
2017-07-10T01:22:09.880Z,67.25
2017-07-10T01:22:50.477Z,67.32
2017-07-10T01:23:31.071Z,66.93
2017-07-10T01:24:11.644Z,66.84
2017-07-10T01:24:52.205Z,67.03
2017-07-10T01:25:32.795Z,66.93
2017-07-10T01:26:13.455Z,66.93
2017-07-10T01:26:54.095Z,66.84
2017-07-10T01:27:34.699Z,66.74
2017-07-10T01:28:15.297Z,66.84
2017-07-10T01:28:55.915Z,66.74
2017-07-10T01:29:36.493Z,66.74
2017-07-10T01:30:17.068Z,67.13
2017-07-10T01:30:57.614Z,67.03
2017-07-10T01:31:38.226Z,67.13
2017-07-10T01:32:18.805Z,66.93
2017-07-10T01:32:59.428Z,67.03
2017-07-10T01:33:40.026Z,66.74
2017-07-10T01:34:20.680Z,66.84
2017-07-10T01:35:01.275Z,66.93
2017-07-10T01:35:41.869Z,67.03
2017-07-10T01:36:22.514Z,66.93
2017-07-10T01:37:03.110Z,66.74
2017-07-10T01:37:43.672Z,66.55
2017-07-10T01:38:24.269Z,66.84
2017-07-10T01:39:04.937Z,67.32
2017-07-10T01:39:45.566Z,67.22
2017-07-10T01:40:26.187Z,67.22
2017-07-10T01:41:06.783Z,67.22
2017-07-10T01:41:47.338Z,67.41
2017-07-10T01:42:27.971Z,67.41
2017-07-10T01:43:08.563Z,67.13
2017-07-10T01:43:49.153Z,66.93
2017-07-10T01:44:29.764Z,66.93
2017-07-10T01:45:10.342Z,66.84
2017-07-10T01:45:50.970Z,67.13
2017-07-10T01:46:31.563Z,67.51
2017-07-10T01:47:12.221Z,67.22
2017-07-10T01:47:52.788Z,66.93
2017-07-10T01:48:33.372Z,67.22
2017-07-10T01:49:13.970Z,67.22
2017-07-10T01:49:54.569Z,67.32
2017-07-10T01:50:35.175Z,67.51
2017-07-10T01:51:15.743Z,66.55
2017-07-10T01:51:56.324Z,67.51
2017-07-10T01:52:36.904Z,67.41
2017-07-10T01:53:17.513Z,67.41
2017-07-10T01:53:58.087Z,67.61
2017-07-10T01:54:38.678Z,67.7
2017-07-10T01:55:19.236Z,67.9
2017-07-10T01:55:59.825Z,67.7
2017-07-10T01:56:40.438Z,67.8
2017-07-10T01:57:21.014Z,67.7
2017-07-10T01:58:01.586Z,67.9
2017-07-10T01:58:42.222Z,67.76
2017-07-10T01:59:22.893Z,67.99
2017-07-10T02:00:03.479Z,67.61
2017-07-10T02:00:44.069Z,67.7
2017-07-10T02:01:24.645Z,67.7
2017-07-10T02:02:05.243Z,67.99
2017-07-10T02:02:45.824Z,67.41
2017-07-10T02:03:26.599Z,67.22
2017-07-10T02:04:07.168Z,67.03
2017-07-10T02:04:47.753Z,67.41
2017-07-10T02:05:28.335Z,67.99
2017-07-10T02:06:08.913Z,67.67
2017-07-10T02:06:49.505Z,67.8
2017-07-10T02:07:30.079Z,67.57
2017-07-10T02:08:10.681Z,67.47
2017-07-10T02:08:51.268Z,67.76
2017-07-10T02:09:31.832Z,67.7
2017-07-10T02:10:12.400Z,67.76
2017-07-10T02:10:53.014Z,67.86
2017-07-10T02:11:33.657Z,68.05
2017-07-10T02:12:14.264Z,67.86
2017-07-10T02:12:54.844Z,67.86
2017-07-10T02:13:35.414Z,67.67
2017-07-10T02:14:15.977Z,67.67
2017-07-10T02:14:56.560Z,67.76
2017-07-10T02:15:37.168Z,67.86
2017-07-10T02:16:17.859Z,67.76
2017-07-10T02:16:58.428Z,67.76
2017-07-10T02:17:39.024Z,67.57
2017-07-10T02:18:19.587Z,67
2017-07-10T02:19:00.168Z,67.57
2017-07-10T02:19:40.789Z,67.67
2017-07-10T02:20:21.372Z,67.19
2017-07-10T02:21:01.996Z,67.47
2017-07-10T02:21:42.654Z,67.47
2017-07-10T02:22:23.235Z,67.76
2017-07-10T02:23:03.820Z,67.67
2017-07-10T02:23:44.413Z,67
2017-07-10T02:24:25.059Z,66.9
2017-07-10T02:25:05.637Z,67.47
2017-07-10T02:25:46.288Z,67.67
2017-07-10T02:26:26.911Z,67.19
2017-07-10T02:27:07.492Z,67.47
2017-07-10T02:27:48.101Z,67.47
2017-07-10T02:28:28.671Z,67.47
2017-07-10T02:29:09.240Z,67.86
2017-07-10T02:29:49.853Z,67.67
2017-07-10T02:30:30.483Z,67.67
2017-07-10T02:31:11.129Z,67.38
2017-07-10T02:31:51.695Z,67.67
2017-07-10T02:32:32.267Z,67.86
2017-07-10T02:33:12.835Z,67.67
2017-07-10T02:33:53.445Z,68.05
2017-07-10T02:34:34.047Z,67.76
2017-07-10T02:35:14.654Z,67.96
2017-07-10T02:35:55.219Z,67.76
2017-07-10T02:36:35.789Z,67.67
2017-07-10T02:37:16.370Z,67.96
2017-07-10T02:37:56.955Z,67.86
2017-07-10T02:38:37.629Z,67.86
2017-07-10T02:39:18.195Z,67.86
2017-07-10T02:39:58.785Z,67.76
2017-07-10T02:40:39.369Z,67.76
2017-07-10T02:41:19.929Z,67.76
2017-07-10T02:42:00.560Z,67.86
2017-07-10T02:42:41.133Z,67.38
2017-07-10T02:43:21.724Z,67.86
2017-07-10T02:44:02.311Z,67.86
2017-07-10T02:44:42.898Z,67.67
2017-07-10T02:45:23.522Z,68.15
2017-07-10T02:46:04.086Z,68.53
2017-07-10T02:46:44.677Z,68.37
2017-07-10T02:47:25.282Z,68.37
2017-07-10T02:48:05.878Z,68.24
2017-07-10T02:48:46.452Z,68.24
2017-07-10T02:49:27.052Z,67.86
2017-07-10T02:50:07.646Z,67.29
2017-07-10T02:50:48.218Z,67.19
2017-07-10T02:51:28.784Z,68.05
2017-07-10T02:52:09.341Z,67.67
2017-07-10T02:52:49.914Z,67.96
2017-07-10T02:53:30.499Z,68.05
2017-07-10T02:54:11.122Z,68.15
2017-07-10T02:54:51.685Z,68.15
2017-07-10T02:55:32.266Z,68.15
2017-07-10T02:56:12.858Z,68.34
2017-07-10T02:56:53.449Z,68.24
2017-07-10T02:57:34.026Z,68.34
2017-07-10T02:58:14.602Z,68.24
2017-07-10T02:58:55.174Z,68.24
2017-07-10T02:59:35.759Z,68.34
2017-07-10T03:00:16.332Z,68.15
2017-07-10T03:00:56.929Z,68.91
2017-07-10T03:01:37.520Z,69.11
2017-07-10T03:02:18.154Z,68.34
2017-07-10T03:02:58.795Z,68.44
2017-07-10T03:03:39.376Z,68.08
2017-07-10T03:04:19.975Z,67.86
2017-07-10T03:05:00.533Z,68.05
2017-07-10T03:05:41.108Z,68.05
2017-07-10T03:06:21.768Z,67.67
2017-07-10T03:07:02.357Z,68.05
2017-07-10T03:07:42.927Z,67.57
2017-07-10T03:08:23.527Z,67.96
2017-07-10T03:09:04.107Z,67.76
2017-07-10T03:09:44.674Z,67.76
2017-07-10T03:10:25.300Z,67.57
2017-07-10T03:11:05.920Z,67.57
2017-07-10T03:11:46.494Z,67.47
2017-07-10T03:12:27.102Z,67.38
2017-07-10T03:13:07.683Z,67.47
2017-07-10T03:13:48.272Z,67.86
2017-07-10T03:14:28.848Z,67.38
2017-07-10T03:15:09.415Z,67.47
2017-07-10T03:15:49.991Z,67.57
2017-07-10T03:16:30.584Z,67.76
2017-07-10T03:17:11.169Z,67.86
2017-07-10T03:17:51.747Z,67.47
2017-07-10T03:18:32.338Z,67.7
2017-07-10T03:19:12.950Z,67.86
2017-07-10T03:19:53.507Z,67.57
2017-07-10T03:20:34.080Z,67.47
2017-07-10T03:21:14.663Z,67.47
2017-07-10T03:21:55.229Z,67.38
2017-07-10T03:22:35.786Z,67.38
2017-07-10T03:23:16.369Z,67.57
2017-07-10T03:23:56.958Z,67.47
2017-07-10T03:24:37.538Z,68.05
2017-07-10T03:25:18.121Z,67.47
2017-07-10T03:25:58.681Z,67.38
2017-07-10T03:26:39.279Z,67.76
2017-07-10T03:27:19.872Z,67.8
2017-07-10T03:28:00.438Z,67.86
2017-07-10T03:28:41.024Z,67.57
2017-07-10T03:29:21.609Z,67.47
2017-07-10T03:30:02.183Z,67.67
2017-07-10T03:30:42.793Z,67.38
2017-07-10T03:31:23.357Z,67.61
2017-07-10T03:32:03.932Z,67
2017-07-10T03:32:44.495Z,67.38
2017-07-10T03:33:25.062Z,67.38
2017-07-10T03:34:05.651Z,67.57
2017-07-10T03:34:46.238Z,67.67
2017-07-10T03:35:26.820Z,67.51
2017-07-10T03:36:07.392Z,67.76
2017-07-10T03:36:47.949Z,67.19
2017-07-10T03:37:28.516Z,67.19
2017-07-10T03:38:09.092Z,67
2017-07-10T03:38:49.664Z,67.86
2017-07-10T03:39:30.293Z,67.57
2017-07-10T03:40:10.870Z,67.76
2017-07-10T03:40:51.447Z,67.76
2017-07-10T03:41:32.119Z,67.96
2017-07-10T03:42:12.706Z,67.86
2017-07-10T03:42:53.287Z,67.96
2017-07-10T03:43:33.943Z,67.9
2017-07-10T03:44:14.517Z,68.08
2017-07-10T03:44:55.103Z,67.99
2017-07-10T03:45:35.711Z,67.61
2017-07-10T03:46:16.271Z,67.99
2017-07-10T03:46:56.847Z,68.08
2017-07-10T03:47:37.413Z,67.03
2017-07-10T03:48:17.982Z,67.22
2017-07-10T03:48:58.572Z,67.7
2017-07-10T03:49:39.181Z,67.03
2017-07-10T03:50:19.755Z,67.61
2017-07-10T03:51:00.362Z,67.22
2017-07-10T03:51:40.952Z,67.22
2017-07-10T03:52:21.531Z,67.13
2017-07-10T03:53:02.114Z,67.8
2017-07-10T03:53:42.726Z,67.9
2017-07-10T03:54:23.283Z,67.9
2017-07-10T03:55:03.862Z,67.41
2017-07-10T03:55:44.456Z,67.32
2017-07-10T03:56:25.037Z,67.51
2017-07-10T03:57:05.611Z,67.32
2017-07-10T03:57:46.230Z,67.22
2017-07-10T03:58:26.812Z,67.51
2017-07-10T03:59:07.386Z,67.61
2017-07-10T03:59:47.998Z,67.8
2017-07-10T04:00:28.653Z,67.61
2017-07-10T04:01:09.228Z,67.8
2017-07-10T04:01:49.808Z,67.51
2017-07-10T04:02:30.393Z,67.7
2017-07-10T04:03:10.955Z,67.7
2017-07-10T04:03:51.532Z,67.9
2017-07-10T04:04:32.149Z,67.51
2017-07-10T04:05:12.763Z,68.08
2017-07-10T04:05:53.360Z,67.9
2017-07-10T04:06:33.936Z,67.9
2017-07-10T04:07:14.519Z,67.8
2017-07-10T04:07:55.106Z,67.7
2017-07-10T04:08:35.675Z,67.8
2017-07-10T04:09:16.253Z,68.08
2017-07-10T04:09:56.838Z,67.9
2017-07-10T04:10:37.414Z,67.99
2017-07-10T04:11:18.105Z,68.08
2017-07-10T04:11:58.721Z,67.7
2017-07-10T04:12:39.309Z,68.08
2017-07-10T04:13:19.924Z,67.61
2017-07-10T04:14:00.533Z,67.9
2017-07-10T04:14:41.134Z,67.9
2017-07-10T04:15:21.950Z,67.9
2017-07-10T04:16:02.566Z,68.08
2017-07-10T04:16:43.130Z,67.7
2017-07-10T04:17:23.698Z,67.7
2017-07-10T04:18:04.287Z,67.9
2017-07-10T04:18:44.886Z,67.7
2017-07-10T04:19:25.500Z,67.8
2017-07-10T04:20:06.114Z,67.99
2017-07-10T04:20:46.704Z,68.08
2017-07-10T04:21:27.279Z,67.9
2017-07-10T04:22:07.855Z,67.8
2017-07-10T04:22:48.422Z,67.7
2017-07-10T04:23:29.002Z,67.8
2017-07-10T04:24:09.577Z,67.22
2017-07-10T04:24:50.161Z,67.22
2017-07-10T04:25:30.726Z,67.61
2017-07-10T04:26:11.304Z,67.99
2017-07-10T04:26:51.888Z,67.7
2017-07-10T04:27:32.478Z,67.61
2017-07-10T04:28:13.058Z,67.22
2017-07-10T04:28:53.642Z,67.03
2017-07-10T04:29:34.220Z,67.9
2017-07-10T04:30:14.786Z,67.41
2017-07-10T04:30:55.359Z,67.51
2017-07-10T04:31:35.935Z,68.18
2017-07-10T04:32:16.525Z,68.28
2017-07-10T04:32:57.087Z,68.47
2017-07-10T04:33:37.668Z,68.02
2017-07-10T04:34:18.390Z,68.37
2017-07-10T04:34:58.971Z,68.57
2017-07-10T04:35:39.594Z,68.98
2017-07-10T04:36:20.215Z,68.28
2017-07-10T04:37:01.038Z,68.6
2017-07-10T04:37:42.066Z,68.02
2017-07-10T04:38:22.664Z,66.97
2017-07-10T04:39:03.240Z,66.87
2017-07-10T04:39:43.816Z,67.7
2017-07-10T04:40:24.383Z,67.07
2017-07-10T04:41:04.990Z,67.74
2017-07-10T04:41:45.572Z,67.83
2017-07-10T04:42:26.149Z,67.07
2017-07-10T04:43:06.736Z,67.54
2017-07-10T04:43:47.353Z,67.35
2017-07-10T04:44:27.939Z,67.25
2017-07-10T04:45:08.531Z,67.64
2017-07-10T04:45:49.243Z,67.54
2017-07-10T04:46:29.806Z,68.02
2017-07-10T04:47:10.371Z,67.61
2017-07-10T04:47:51.008Z,67.74
2017-07-10T04:48:31.564Z,67.83
2017-07-10T04:49:12.133Z,67.74
2017-07-10T04:49:52.698Z,67.07
2017-07-10T04:50:33.582Z,67.16
2017-07-10T04:51:14.160Z,66.87
2017-07-10T04:51:54.717Z,66.87
2017-07-10T04:52:35.483Z,67.54
2017-07-10T04:53:16.078Z,67.25
2017-07-10T04:53:56.665Z,67.64
2017-07-10T04:54:37.250Z,66.87
2017-07-10T04:55:17.843Z,66.87
2017-07-10T04:55:58.412Z,67.25
2017-07-10T04:56:38.995Z,66.39
2017-07-10T04:57:19.596Z,67.35
2017-07-10T04:58:00.217Z,67.25
2017-07-10T04:58:40.826Z,67.64
2017-07-10T04:59:21.427Z,67.54
2017-07-10T05:00:02.020Z,67.16
2017-07-10T05:00:42.607Z,67.25
2017-07-10T05:01:23.197Z,67.64
2017-07-10T05:02:03.765Z,67.45
2017-07-10T05:02:44.356Z,66.87
2017-07-10T05:03:25.138Z,66.77
2017-07-10T05:04:05.716Z,66.97
2017-07-10T05:04:46.337Z,66.87
2017-07-10T05:05:26.929Z,67.86
2017-07-10T05:06:07.519Z,68.31
2017-07-10T05:06:48.129Z,68.02
2017-07-10T05:07:28.679Z,66.91
2017-07-10T05:08:09.260Z,67
2017-07-10T05:08:49.842Z,66.71
2017-07-10T05:09:30.463Z,66.91
2017-07-10T05:10:11.037Z,67.58
2017-07-10T05:10:51.634Z,67.58
2017-07-10T05:11:32.212Z,66.81
2017-07-10T05:12:12.793Z,67.29
2017-07-10T05:12:53.390Z,67.58
2017-07-10T05:13:33.972Z,67.19
2017-07-10T05:14:14.545Z,67.48
2017-07-10T05:14:55.123Z,67.1
2017-07-10T05:15:35.730Z,66.71
2017-07-10T05:16:16.337Z,66.71
2017-07-10T05:16:56.916Z,66.52
2017-07-10T05:17:37.547Z,66.23
2017-07-10T05:18:18.170Z,66.23
2017-07-10T05:18:58.748Z,66.71
2017-07-10T05:19:39.337Z,67
2017-07-10T05:20:19.920Z,67.1
2017-07-10T05:21:00.520Z,67.19
2017-07-10T05:21:41.094Z,67.29
2017-07-10T05:22:21.678Z,66.81
2017-07-10T05:23:02.297Z,66.52
2017-07-10T05:23:42.908Z,66.52
2017-07-10T05:24:23.497Z,66.42
2017-07-10T05:25:04.110Z,66.14
2017-07-10T05:25:44.705Z,66.61
2017-07-10T05:26:25.313Z,67.19
2017-07-10T05:27:05.904Z,67.03
2017-07-10T05:27:46.466Z,66.94
2017-07-10T05:28:27.106Z,66.65
2017-07-10T05:29:07.699Z,66.36
2017-07-10T05:29:48.271Z,66.91
2017-07-10T05:30:28.875Z,67.22
2017-07-10T05:31:09.558Z,66.94
2017-07-10T05:31:50.133Z,66.46
2017-07-10T05:32:30.722Z,66.27
2017-07-10T05:33:11.339Z,67.22
2017-07-10T05:33:51.918Z,66.94
2017-07-10T05:34:32.503Z,67.03
2017-07-10T05:35:13.090Z,67.03
2017-07-10T05:35:53.663Z,66.07
2017-07-10T05:36:34.304Z,66.36
2017-07-10T05:37:14.869Z,66.27
2017-07-10T05:37:55.440Z,65.97
2017-07-10T05:38:36.042Z,65.69
2017-07-10T05:39:16.608Z,65.4
2017-07-10T05:39:57.184Z,65.59
2017-07-10T05:40:37.756Z,66.36
2017-07-10T05:41:18.331Z,66.55
2017-07-10T05:41:58.899Z,66.36
2017-07-10T05:42:39.485Z,66.84
2017-07-10T05:43:20.057Z,66.46
2017-07-10T05:44:00.625Z,66.84
2017-07-10T05:44:41.201Z,66.27
2017-07-10T05:45:21.814Z,66.74
2017-07-10T05:46:02.401Z,67.32
2017-07-10T05:46:43.077Z,67.83
2017-07-10T05:47:23.799Z,67.03
2017-07-10T05:48:04.620Z,66.88
2017-07-10T05:48:45.513Z,66.39
2017-07-10T05:49:26.358Z,65.53
2017-07-10T05:50:07.352Z,66.2
2017-07-10T05:50:48.049Z,66.78
2017-07-10T05:51:28.720Z,65.63
2017-07-10T05:52:09.909Z,65.17
2017-07-10T05:52:50.737Z,65.08
2017-07-10T05:53:31.373Z,64.69
2017-07-10T05:54:12.657Z,65.37
2017-07-10T05:54:53.438Z,65.66
2017-07-10T05:55:34.052Z,64.43
2017-07-10T05:56:14.734Z,63.67
2017-07-10T05:56:58.283Z,63.76
2017-07-10T05:57:41.732Z,63.57
2017-07-10T05:58:23.226Z,63.76
2017-07-10T05:59:08.385Z,63.67
2017-07-10T05:59:49.513Z,63.76
2017-07-10T06:00:31.779Z,64.15
2017-07-10T06:01:12.398Z,63.38
2017-07-10T06:01:53.034Z,63.76
2017-07-10T06:02:33.620Z,63.67
2017-07-10T06:03:14.192Z,63.28
2017-07-10T06:03:54.832Z,63.25
2017-07-10T06:04:35.428Z,63.25
2017-07-10T06:05:15.996Z,63.73
2017-07-10T06:05:56.560Z,64.02
2017-07-10T06:06:37.142Z,64.79
2017-07-10T06:07:17.717Z,64.69
2017-07-10T06:07:58.299Z,64.69
2017-07-10T06:08:38.874Z,64.79
2017-07-10T06:09:19.436Z,65.17
2017-07-10T06:10:00.046Z,64.79
2017-07-10T06:10:40.659Z,64.79
2017-07-10T06:11:21.245Z,64.98
2017-07-10T06:12:01.826Z,64.79
2017-07-10T06:12:42.419Z,65.08
2017-07-10T06:13:23.017Z,64.79
2017-07-10T06:14:03.614Z,64.79
2017-07-10T06:14:44.204Z,65.37
2017-07-10T06:15:24.797Z,64.79
2017-07-10T06:16:05.370Z,65.27
2017-07-10T06:16:45.962Z,65.37
2017-07-10T06:17:26.542Z,65.66
2017-07-10T06:18:07.124Z,65.37
2017-07-10T06:18:47.704Z,64.79
2017-07-10T06:19:28.267Z,65.56
2017-07-10T06:20:08.869Z,65.08
2017-07-10T06:20:49.449Z,66.14
2017-07-10T06:21:30.020Z,66.24
2017-07-10T06:22:10.584Z,65.75
2017-07-10T06:22:51.271Z,65.85
2017-07-10T06:23:31.851Z,65.56
2017-07-10T06:24:12.432Z,65.78
2017-07-10T06:24:53.020Z,65.75
2017-07-10T06:25:33.590Z,65.69
2017-07-10T06:26:14.169Z,65.88
2017-07-10T06:26:54.740Z,66.17
2017-07-10T06:27:35.301Z,66.85
2017-07-10T06:28:15.892Z,67.23
2017-07-10T06:28:56.497Z,65.4
2017-07-10T06:29:37.023Z,65.05
2017-07-10T06:30:17.591Z,65.24
2017-07-10T06:30:58.183Z,64.56
2017-07-10T06:31:38.750Z,65.24
2017-07-10T06:32:19.319Z,65.91
2017-07-10T06:32:59.923Z,64.76
2017-07-10T06:33:40.498Z,64.66
2017-07-10T06:34:21.105Z,64.86
2017-07-10T06:35:01.676Z,64.86
2017-07-10T06:35:42.251Z,64.86
2017-07-10T06:36:22.981Z,64.56
2017-07-10T06:37:03.554Z,63.89
2017-07-10T06:37:44.159Z,63.6
2017-07-10T06:38:24.764Z,64.86
2017-07-10T06:39:05.348Z,64.76
2017-07-10T06:39:45.923Z,64.76
2017-07-10T06:40:26.502Z,64.66
2017-07-10T06:41:07.078Z,64.66
2017-07-10T06:41:47.659Z,64.76
2017-07-10T06:42:28.241Z,64.66
2017-07-10T06:43:08.818Z,65.14
2017-07-10T06:43:49.389Z,65.14
2017-07-10T06:44:30.024Z,65.33
2017-07-10T06:45:10.569Z,64.56
2017-07-10T06:45:51.155Z,64.66
2017-07-10T06:46:31.751Z,63.98
2017-07-10T06:47:12.324Z,64.28
2017-07-10T06:47:52.909Z,64.76
2017-07-10T06:48:33.492Z,64.37
2017-07-10T06:49:14.053Z,64.56
2017-07-10T06:49:54.622Z,64.56
2017-07-10T06:50:35.193Z,64.37
2017-07-10T06:51:15.775Z,64.66
2017-07-10T06:51:56.383Z,64.66
2017-07-10T06:52:36.989Z,64.66
2017-07-10T06:53:17.548Z,64.56
2017-07-10T06:53:58.155Z,64.86
2017-07-10T06:54:38.725Z,64.66
2017-07-10T06:55:19.301Z,64.92
2017-07-10T06:55:59.884Z,65.01
2017-07-10T06:56:40.477Z,65.11
2017-07-10T06:57:21.055Z,65.2
2017-07-10T06:58:01.641Z,65.2
2017-07-10T06:58:42.227Z,65.69
2017-07-10T06:59:22.855Z,65.78
2017-07-10T07:00:03.460Z,65.5
2017-07-10T07:00:44.049Z,65.78
2017-07-10T07:01:24.633Z,65.59
2017-07-10T07:02:05.216Z,65.78
2017-07-10T07:02:45.908Z,66.07
2017-07-10T07:03:26.468Z,66.07
2017-07-10T07:04:07.042Z,66.17
2017-07-10T07:04:47.612Z,65.98
2017-07-10T07:05:28.174Z,66.27
2017-07-10T07:06:08.808Z,66.36
2017-07-10T07:06:49.374Z,66.36
2017-07-10T07:07:29.952Z,66.17
2017-07-10T07:08:10.547Z,66.07
2017-07-10T07:08:51.118Z,66.55
2017-07-10T07:09:31.998Z,66.75
2017-07-10T07:10:12.583Z,66.17
2017-07-10T07:10:53.154Z,66.27
2017-07-10T07:11:34.061Z,66.07
2017-07-10T07:12:14.478Z,66.36
2017-07-10T07:12:55.102Z,66.55
2017-07-10T07:13:35.670Z,66.85
2017-07-10T07:14:16.242Z,66.85
2017-07-10T07:14:56.827Z,66.65
2017-07-10T07:15:37.446Z,66.65
2017-07-10T07:16:18.006Z,66.85
2017-07-10T07:16:58.579Z,66.55
2017-07-10T07:17:39.215Z,66.75
2017-07-10T07:18:19.792Z,66.55
2017-07-10T07:19:00.356Z,66.75
2017-07-10T07:19:40.931Z,67.13
2017-07-10T07:20:21.500Z,67.13
2017-07-10T07:21:02.078Z,67.33
2017-07-10T07:21:42.662Z,67.13
2017-07-10T07:22:23.234Z,66.85
2017-07-10T07:23:03.830Z,67.03
2017-07-10T07:23:44.405Z,67.13
2017-07-10T07:24:24.975Z,67.03
2017-07-10T07:25:05.551Z,66.94
2017-07-10T07:25:46.144Z,67.03
2017-07-10T07:26:26.728Z,66.94
2017-07-10T07:27:07.313Z,67.23
2017-07-10T07:27:47.900Z,66.94
2017-07-10T07:28:28.475Z,67.13
2017-07-10T07:29:09.046Z,66.85
2017-07-10T07:29:49.618Z,66.94
2017-07-10T07:30:30.190Z,66.85
2017-07-10T07:31:10.769Z,67.23
2017-07-10T07:31:51.326Z,66.94
2017-07-10T07:32:31.909Z,66.85
2017-07-10T07:33:12.487Z,66.94
2017-07-10T07:33:53.070Z,67.13
2017-07-10T07:34:33.670Z,67.03
2017-07-10T07:35:14.252Z,67.03
2017-07-10T07:35:54.832Z,67.23
2017-07-10T07:36:35.427Z,67.23
2017-07-10T07:37:16.004Z,67.61
2017-07-10T07:37:56.569Z,67.03
2017-07-10T07:38:37.148Z,67.81
2017-07-10T07:39:17.710Z,67.52
2017-07-10T07:39:58.292Z,67.42
2017-07-10T07:40:38.881Z,67.61
2017-07-10T07:41:19.438Z,67.33
2017-07-10T07:42:00.016Z,68.1
2017-07-10T07:42:40.581Z,67.71
2017-07-10T07:43:21.189Z,67.33
2017-07-10T07:44:01.744Z,67.71
2017-07-10T07:44:42.322Z,68.29
2017-07-10T07:45:22.921Z,67.9
2017-07-10T07:46:03.485Z,67.71
2017-07-10T07:46:44.082Z,68.1
2017-07-10T07:47:24.648Z,67.9
2017-07-10T07:48:05.221Z,68.19
2017-07-10T07:48:45.799Z,67.61
2017-07-10T07:49:26.392Z,67.71
2017-07-10T07:50:06.973Z,67.71
2017-07-10T07:50:47.550Z,67.71
2017-07-10T07:51:28.141Z,67.61
2017-07-10T07:52:08.711Z,67.81
2017-07-10T07:52:49.305Z,67.71
2017-07-10T07:53:29.868Z,67.9
2017-07-10T07:54:10.443Z,68.29
2017-07-10T07:54:51.005Z,68.1
2017-07-10T07:55:31.583Z,67.81
2017-07-10T07:56:12.160Z,68.29
2017-07-10T07:56:52.758Z,68.19
2017-07-10T07:57:33.357Z,68.29
2017-07-10T07:58:13.945Z,68.29
2017-07-10T07:58:54.518Z,68.29
2017-07-10T07:59:35.093Z,67.61
2017-07-10T08:00:15.667Z,67.71
2017-07-10T08:00:56.245Z,68.29
2017-07-10T08:01:36.804Z,68.1
2017-07-10T08:02:17.368Z,67.9
2017-07-10T08:02:57.945Z,68.58
2017-07-10T08:03:38.516Z,68.48
2017-07-10T08:04:19.070Z,68.1
2017-07-10T08:04:59.665Z,68.1
2017-07-10T08:05:40.230Z,68.48
2017-07-10T08:06:20.815Z,68.48
2017-07-10T08:07:01.392Z,69.06
2017-07-10T08:07:42.012Z,69.25
2017-07-10T08:08:22.581Z,68.77
2017-07-10T08:09:03.276Z,69.64
2017-07-10T08:09:43.753Z,69.54
2017-07-10T08:10:24.343Z,69.64
2017-07-10T08:11:04.930Z,69.35
2017-07-10T08:11:45.578Z,69.45
2017-07-10T08:12:26.157Z,69.25
2017-07-10T08:13:06.740Z,69.73
2017-07-10T08:13:47.301Z,69.83
2017-07-10T08:14:27.935Z,70.21
2017-07-10T08:15:08.466Z,69.93
2017-07-10T08:15:49.057Z,70.37
2017-07-10T08:16:29.646Z,70.21
2017-07-10T08:17:10.268Z,69.64
2017-07-10T08:17:50.851Z,69.93
2017-07-10T08:18:31.419Z,70.31
2017-07-10T08:19:11.999Z,70.02
2017-07-10T08:19:52.567Z,70.6
2017-07-10T08:20:33.138Z,70.79
2017-07-10T08:21:13.720Z,71.08
2017-07-10T08:21:55.154Z,71.08
2017-07-10T08:22:35.748Z,70.6
2017-07-10T08:23:16.344Z,71.18
2017-07-10T08:23:56.920Z,71.28
2017-07-10T08:24:37.485Z,71.37
2017-07-10T08:25:18.056Z,71.56
2017-07-10T08:25:58.624Z,70.95
2017-07-10T08:26:39.222Z,70.66
2017-07-10T08:27:19.781Z,71.18
2017-07-10T08:28:00.390Z,71.24
2017-07-10T08:28:41.044Z,71.24
2017-07-10T08:29:21.621Z,71.72
2017-07-10T08:30:02.188Z,71.62
2017-07-10T08:30:42.823Z,71.91
2017-07-10T08:31:23.419Z,72.01
2017-07-10T08:32:05.082Z,71.91
2017-07-10T08:32:45.676Z,72.2
2017-07-10T08:33:26.270Z,72.39
2017-07-10T08:34:07.253Z,72.78
2017-07-10T08:34:47.840Z,73.26
2017-07-10T08:35:28.436Z,73.55
2017-07-10T08:36:09.012Z,73.84
2017-07-10T08:36:49.591Z,74.41
2017-07-10T08:37:30.185Z,74.61
2017-07-10T08:38:10.816Z,74.22
2017-07-10T08:38:51.400Z,74.61
2017-07-10T08:39:31.975Z,74.61
2017-07-10T08:40:12.656Z,74.8
2017-07-10T08:40:53.211Z,74.8
2017-07-10T08:41:33.784Z,74.8
2017-07-10T08:42:14.356Z,74.8
2017-07-10T08:42:54.964Z,75.48
2017-07-10T08:43:35.525Z,75.38
2017-07-10T08:44:16.944Z,75.19
2017-07-10T08:44:57.557Z,74.99
2017-07-10T08:45:38.140Z,75.86